• Join FlightAware (Why Join?)
  • Login
  • US Flag 
03:56PM EDT


 

Airport Tracker/Info


-or-


 

Live Flight TrackerFlight Track Log ✈ N163CA ✈ 27-Oct-2013 ✈ KSGJ - KTLH

Flight Track Log - Related Links

Times and Time Zones

All times are in EDT time to prevent confusion due to time zone crossing. See the N163CA flight status page for this flight to view local times or setup timezone preferences in your user account.

Time Position Orientation Groundspeed Altitude Reporting Facility
EDT Latitude Longitude Course Direction KTS MPH feet Rate Location/Type
06:44PM 30.0056 -81.4222 280° West 106 122 2,000  Level Jacksonville Center
06:45PM 30.0058 -81.4558 271° West 105 121 2,600 600 Climbing Jacksonville Center
06:46PM 30.0042 -81.4894 267° West 109 125 3,300 600 Climbing Jacksonville Center
06:47PM 30.0067 -81.5253 275° West 111 128 3,900 600 Climbing Jacksonville Center
06:48PM 30.0111 -81.5614 278° West 111 128 4,600 660 Climbing Jacksonville Center
06:49PM 30.0049 -81.6406 280° West  Level FlightAware Approximate
06:49PM 30.0156 -81.5947 279° West 111 128 5,300  Level Jacksonville Center
06:50PM 30.0124 -81.6908 280° West  Level FlightAware Approximate
06:50PM 30.0203 -81.6331 278° West 110 127 5,900  Level Jacksonville Center
06:51PM 30.0203 -81.6475 270° West 111 128 6,000  Climbing Jacksonville Center
06:51PM 30.0289 -81.6689 295° West 128 147 5,900 -120 Descending Jacksonville Center
06:52PM 30.0333 -81.6881 285° West 126 145 5,900 60 Level Jacksonville Center
06:52PM 30.0397 -81.7097 289° West 127 146 6,000  Climbing Jacksonville Center
06:53PM 30.0483 -81.7286 298° West 134 154 5,900 -120 Descending Jacksonville Center
06:53PM 30.0506 -81.7528 276° West 136 157 5,900  Level Jacksonville Center
06:54PM 30.0592 -81.7719 297° West 139 160 5,900  Level Jacksonville Center
06:54PM 30.0592 -81.7958 270° West 135 155 5,900  Level Jacksonville Center
06:55PM 30.0614 -81.8125 279° West 139 160 5,900  Level Jacksonville Center
06:55PM 30.0658 -81.8367 282° West 133 153 5,900  Level Jacksonville Center
06:56PM 30.0703 -81.8533 287° West 132 152 5,900  Level Jacksonville Center
06:56PM 30.0725 -81.8797 276° West 132 152 5,900  Level Jacksonville Center
06:57PM 30.0725 -81.8964 270° West 137 158 5,900  Level Jacksonville Center
06:58PM 30.0750 -81.9228 276° West 133 153 5,900  Level Jacksonville Center
06:58PM 30.0814 -81.9372 297° West 131 151 5,900  Level Jacksonville Center
06:59PM 30.0836 -81.9661 275° West 134 154 5,900  Level Jacksonville Center
06:59PM 30.0878 -81.9781 292° West 131 151 5,900  Level Jacksonville Center
07:00PM 30.0903 -82.0067 276° West 130 150 5,900  Level Jacksonville Center
07:00PM 30.0922 -82.0211 279° West 131 151 5,900  Level Jacksonville Center
07:01PM 30.0947 -82.0475 276° West 131 151 5,900  Level Jacksonville Center
07:01PM 30.0989 -82.0692 283° West 131 151 5,900  Level Jacksonville Center
07:02PM 30.1033 -82.0978 280° West 128 147 5,900  Level Jacksonville Center
07:02PM 30.1075 -82.1025 316° Northwest 131 151 5,900 -120 Level Jacksonville Center
07:03PM 30.1139 -82.1411 281° West 141 162 5,800  Descending Jacksonville Center
07:04PM 30.1206 -82.1842 280° West 141 162 5,900  Climbing Jacksonville Center
07:05PM 30.1206 -82.2225 270° West 141 162 5,900  Level Jacksonville Center
07:06PM 30.1189 -82.2658 267° West 141 162 5,900  Level Jacksonville Center
07:07PM 30.1275 -82.3067 284° West 141 162 5,900  Level Jacksonville Center
07:08PM 30.1381 -82.3472 287° West 141 162 5,900  Level Jacksonville Center
07:09PM 30.1444 -82.3858 281° West 136 157 6,000  Climbing Jacksonville Center
07:10PM 30.1467 -82.4289 273° West 136 157 5,900 -60 Descending Jacksonville Center
07:11PM 30.1489 -82.4722 273° West 136 157 5,900  Level Jacksonville Center
07:12PM 30.1553 -82.5131 280° West 136 157 5,900  Level Jacksonville Center
07:13PM 30.1639 -82.5539 284° West 141 162 5,900  Level Jacksonville Center
07:14PM 30.1681 -82.5994 276° West 141 162 6,000  Climbing Jacksonville Center
07:15PM 30.1744 -82.6403 280° West 141 162 5,900 -60 Descending Jacksonville Center
07:16PM 30.1828 -82.6786 284° West 141 162 5,900  Level Jacksonville Center
07:17PM 30.1869 -82.7219 276° West 141 162 5,900  Level Jacksonville Center
07:18PM 30.1933 -82.7653 280° West 141 162 6,000  Climbing Jacksonville Center
07:19PM 30.1975 -82.8083 276° West 141 162 5,900  Descending Jacksonville Center
07:20PM 30.2039 -82.8494 280° West 141 162 6,000  Climbing Jacksonville Center
07:21PM 30.2100 -82.8925 279° West 141 162 5,900 -60 Descending Jacksonville Center
07:22PM 30.2144 -82.9358 277° West 141 162 5,900  Level Jacksonville Center
07:23PM 30.2206 -82.9792 279° West 141 162 5,900  Level Jacksonville Center
07:24PM 30.2267 -83.0225 279° West 141 162 5,900  Level Jacksonville Center
07:25PM 30.2308 -83.0633 277° West 141 162 5,900  Level Jacksonville Center
07:26PM 30.2350 -83.0994 278° West 141 162 5,900  Level Jacksonville Center
07:27PM 30.2392 -83.1403 277° West 141 162 5,900  Level Jacksonville Center
07:28PM 30.2475 -83.1786 284° West 141 162 5,900  Level Jacksonville Center
07:29PM 30.2536 -83.2219 279° West 141 162 5,900  Level Jacksonville Center
07:30PM 30.2597 -83.2606 280° West 141 162 5,900  Level Jacksonville Center
07:31PM 30.2617 -83.3014 273° West 136 157 5,900  Level Jacksonville Center
07:32PM 30.2658 -83.3400 277° West 136 157 5,900  Level Jacksonville Center
07:33PM 30.2719 -83.3808 280° West 136 157 5,900  Level Jacksonville Center
07:34PM 30.2758 -83.4217 276° West 136 157 5,900  Level Jacksonville Center
07:35PM 30.2861 -83.4603 287° West 131 151 6,000  Climbing Jacksonville Center
07:36PM 30.2964 -83.4989 287° West 126 145 5,900 -60 Descending Jacksonville Center
07:37PM 30.3025 -83.5350 281° West 121 139 5,900  Level Jacksonville Center
07:38PM 30.3044 -83.5736 273° West 121 139 5,900  Level Jacksonville Center
07:39PM 30.3061 -83.6119 273° West 121 139 5,900  Level Jacksonville Center
07:40PM 30.3103 -83.6506 277° West 121 139 5,900 -180 Level Jacksonville Center
07:41PM 30.3142 -83.6867 277° West 121 139 5,600 -360 Descending Jacksonville Center
07:42PM 30.3181 -83.7275 276° West 121 139 5,200 -420 Descending Jacksonville Center
07:44PM 30.3249 -83.7964 277° West  Level FlightAware Approximate
07:51PM 30.3554 -84.0826 281° West  Level FlightAware Approximate
07:52PM 30.3622 -84.1231 281° West  Level FlightAware Approximate
07:53PM 30.3667 -84.1638 270° West  Level FlightAware Approximate
07:54PM 30.3667 -84.2050 270° West  Level FlightAware Approximate
07:55PM 30.3751 -84.2417 319° Northwest  Level FlightAware Approximate
07:56PM 30.3833 -84.2786 270° West  Level FlightAware Approximate
07:57PM 30.3833 -84.3198 270° West  Level FlightAware Approximate
07:58PM 30.3833 -84.3500 270° West  Level FlightAware Approximate
07:59PM 30.3967 -84.3509 270° West  Level Estimated
08:00PM 30.3967 -84.3509 270° West  Level Estimated
08:01PM 30.3967 -84.3509 270° West  Level Estimated
08:02PM 30.3967 -84.3509 270° West  Level Estimated
08:03PM 30.3967 -84.3509 270° West  Level Estimated
08:04PM 30.3967 -84.3509 270° West  Level Estimated
08:05PM 30.3967 -84.3509 270° West  Level Estimated
08:06PM 30.3967 -84.3509 270° West  Level Estimated
08:07PM 30.3967 -84.3509 270° West  Level Estimated
08:08PM 30.3967 -84.3509 270° West  Level Estimated